SWR105 KLAX-RJTT
Flight info
| Callsign | SWR105 |
|---|---|
| Flight time | N/A |
| Altitude | 30000 |
| Route | SUMMR2 MCKEY DCT LIBBO DCT BRINY DCT BOARS DCT AMAKR DCT LINUZ DCT MITOH DCT EDWIL DCT 45N140W/N0485F320 47N150W 48N160W 49N170W/N0478F340 50N180E DCT CARTO DCT CUTEE/N0473F360 DCT KALIG KALNA OTR5 ADNAP Y807 POLIX |
| Aircraft | MD11/H-SDE1E2E3FGHIJ2J3J4J5M1RWXY/LB1D1 |
Departure
| Time | 2026-04-20 22:16 |
|---|---|
| Airport | Los Angeles International Airport (KLAX) |
Arrival
| Time | N/A |
|---|---|
| Airport | Tokyo Haneda International Airport (RJTT) |
| Time | Latitude | Longitude | Altitude | Speed | Heading |
|---|---|---|---|---|---|
| 2026-04-20 21:34 | 33.93941 | -118.41073 | 133 ft | 0 kts | 83° |
| 2026-04-20 21:58 | 33.93941 | -118.41075 | 133 ft | 1 kts | 83° |
| 2026-04-20 21:59 | 33.93940 | -118.41096 | 130 ft | 3 kts | 91° |
| 2026-04-20 21:59 | 33.93941 | -118.41119 | 133 ft | 3 kts | 103° |
| 2026-04-20 21:59 | 33.93946 | -118.41142 | 133 ft | 3 kts | 117° |
| 2026-04-20 21:59 | 33.93956 | -118.41161 | 133 ft | 3 kts | 135° |
| 2026-04-20 22:00 | 33.93970 | -118.41176 | 133 ft | 3 kts | 158° |
| 2026-04-20 22:00 | 33.93982 | -118.41181 | 133 ft | 1 kts | 173° |
| 2026-04-20 22:00 | 33.93972 | -118.41179 | 128 ft | 3 kts | 173° |
| 2026-04-20 22:00 | 33.93952 | -118.41176 | 131 ft | 3 kts | 173° |
| 2026-04-20 22:01 | 33.93943 | -118.41174 | 132 ft | 0 kts | 173° |
| 2026-04-20 22:06 | 33.93942 | -118.41174 | 132 ft | 1 kts | 173° |
| 2026-04-20 22:06 | 33.93927 | -118.41172 | 126 ft | 3 kts | 173° |
| 2026-04-20 22:06 | 33.93894 | -118.41167 | 131 ft | 6 kts | 173° |
| 2026-04-20 22:07 | 33.93845 | -118.41160 | 129 ft | 8 kts | 173° |
| 2026-04-20 22:07 | 33.93787 | -118.41142 | 128 ft | 9 kts | 147° |
| 2026-04-20 22:07 | 33.93769 | -118.41073 | 133 ft | 10 kts | 87° |
| 2026-04-20 22:07 | 33.93778 | -118.40985 | 133 ft | 12 kts | 83° |
| 2026-04-20 22:08 | 33.93788 | -118.40885 | 133 ft | 12 kts | 83° |
| 2026-04-20 22:08 | 33.93797 | -118.40794 | 125 ft | 11 kts | 83° |
| 2026-04-20 22:08 | 33.93806 | -118.40707 | 132 ft | 10 kts | 83° |
| 2026-04-20 22:08 | 33.93815 | -118.40623 | 133 ft | 10 kts | 83° |
| 2026-04-20 22:09 | 33.93823 | -118.40537 | 125 ft | 11 kts | 83° |
| 2026-04-20 22:09 | 33.93833 | -118.40441 | 133 ft | 12 kts | 83° |
| 2026-04-20 22:09 | 33.93844 | -118.40338 | 133 ft | 13 kts | 83° |
| 2026-04-20 22:09 | 33.93854 | -118.40233 | 128 ft | 13 kts | 83° |
| 2026-04-20 22:10 | 33.93866 | -118.40123 | 125 ft | 13 kts | 83° |
| 2026-04-20 22:10 | 33.93877 | -118.40009 | 133 ft | 14 kts | 83° |
| 2026-04-20 22:10 | 33.93889 | -118.39891 | 133 ft | 14 kts | 83° |
| 2026-04-20 22:10 | 33.93902 | -118.39770 | 130 ft | 15 kts | 83° |
| 2026-04-20 22:11 | 33.93914 | -118.39646 | 131 ft | 15 kts | 83° |
| 2026-04-20 22:11 | 33.93928 | -118.39517 | 129 ft | 16 kts | 83° |
| 2026-04-20 22:11 | 33.93941 | -118.39385 | 125 ft | 16 kts | 83° |
| 2026-04-20 22:11 | 33.93955 | -118.39249 | 131 ft | 17 kts | 83° |
| 2026-04-20 22:12 | 33.93969 | -118.39111 | 127 ft | 17 kts | 83° |
| 2026-04-20 22:12 | 33.93983 | -118.38969 | 129 ft | 17 kts | 83° |
| 2026-04-20 22:12 | 33.93998 | -118.38824 | 125 ft | 18 kts | 83° |
| 2026-04-20 22:12 | 33.94013 | -118.38677 | 125 ft | 18 kts | 83° |
| 2026-04-20 22:13 | 33.94029 | -118.38528 | 133 ft | 18 kts | 83° |
| 2026-04-20 22:13 | 33.94044 | -118.38376 | 129 ft | 18 kts | 83° |
| 2026-04-20 22:13 | 33.94059 | -118.38231 | 133 ft | 17 kts | 83° |
| 2026-04-20 22:13 | 33.94071 | -118.38114 | 130 ft | 6 kts | 83° |
| 2026-04-20 22:14 | 33.94075 | -118.38076 | 133 ft | 4 kts | 83° |
| 2026-04-20 22:14 | 33.94077 | -118.38048 | 133 ft | 3 kts | 87° |
| 2026-04-20 22:14 | 33.94072 | -118.38025 | 133 ft | 4 kts | 110° |
| 2026-04-20 22:14 | 33.94049 | -118.38001 | 130 ft | 5 kts | 156° |
| 2026-04-20 22:15 | 33.94009 | -118.38007 | 124 ft | 6 kts | 206° |
| 2026-04-20 22:15 | 33.93984 | -118.38056 | 128 ft | 8 kts | 252° |
| 2026-04-20 22:15 | 33.93980 | -118.38080 | 129 ft | 13 kts | 261° |
| 2026-04-20 22:15 | 33.93938 | -118.38490 | 125 ft | 84 kts | 263° |
| 2026-04-20 22:16 | 33.93840 | -118.39439 | 133 ft | 142 kts | 263° |
| 2026-04-20 22:16 | 33.93702 | -118.40790 | 151 ft | 177 kts | 262° |
| 2026-04-20 22:16 | 33.93543 | -118.42260 | 632 ft | 177 kts | 263° |
| 2026-04-20 22:16 | 33.93387 | -118.43755 | 1207 ft | 182 kts | 262° |
| 2026-04-20 22:17 | 33.93235 | -118.45276 | 1654 ft | 190 kts | 262° |
| 2026-04-20 22:17 | 33.93094 | -118.46891 | 2013 ft | 199 kts | 263° |
| 2026-04-20 22:17 | 33.92951 | -118.48604 | 2249 ft | 214 kts | 263° |
| 2026-04-20 22:17 | 33.92796 | -118.50479 | 2401 ft | 235 kts | 263° |
| 2026-04-20 22:18 | 33.92629 | -118.52505 | 2539 ft | 250 kts | 263° |
| 2026-04-20 22:18 | 33.92454 | -118.54631 | 2657 ft | 260 kts | 263° |
| 2026-04-20 22:18 | 33.92274 | -118.56830 | 2799 ft | 268 kts | 263° |
| 2026-04-20 22:18 | 33.92087 | -118.59106 | 2916 ft | 282 kts | 263° |
| 2026-04-20 22:19 | 33.91889 | -118.61536 | 3134 ft | 299 kts | 264° |
| 2026-04-20 22:19 | 33.91784 | -118.64060 | 3703 ft | 305 kts | 268° |
| 2026-04-20 22:19 | 33.91753 | -118.66627 | 4359 ft | 308 kts | 268° |
| 2026-04-20 22:19 | 33.91743 | -118.69216 | 5002 ft | 311 kts | 268° |
| 2026-04-20 22:20 | 33.91736 | -118.71837 | 5660 ft | 314 kts | 268° |
| 2026-04-20 22:20 | 33.91729 | -118.74476 | 6309 ft | 317 kts | 268° |
| 2026-04-20 22:20 | 33.91721 | -118.77142 | 6956 ft | 319 kts | 268° |
| 2026-04-20 22:20 | 33.91712 | -118.79821 | 7591 ft | 321 kts | 268° |
| 2026-04-20 22:21 | 33.91708 | -118.82523 | 8182 ft | 324 kts | 268° |
| 2026-04-20 22:21 | 33.91736 | -118.84486 | 8600 ft | 326 kts | 269° |
| 2026-04-20 22:21 | 33.91808 | -118.87327 | 9205 ft | 328 kts | 269° |
| 2026-04-20 22:21 | 33.91889 | -118.90083 | 9777 ft | 331 kts | 269° |
| 2026-04-20 22:22 | 33.91973 | -118.92875 | 10146 ft | 341 kts | 269° |
| 2026-04-20 22:22 | 33.92058 | -118.95793 | 10274 ft | 357 kts | 269° |
| 2026-04-20 22:22 | 33.92152 | -118.98801 | 10740 ft | 361 kts | 271° |
| 2026-04-20 22:22 | 33.92554 | -119.01796 | 11257 ft | 367 kts | 285° |
| 2026-04-20 22:23 | 33.93591 | -119.04624 | 11782 ft | 372 kts | 296° |
| 2026-04-20 22:23 | 33.94920 | -119.07324 | 12317 ft | 376 kts | 299° |
| 2026-04-20 22:23 | 33.96340 | -119.09988 | 12852 ft | 379 kts | 300° |
| 2026-04-20 22:23 | 33.97760 | -119.12629 | 13373 ft | 382 kts | 300° |
| 2026-04-20 22:24 | 33.99196 | -119.15334 | 13895 ft | 384 kts | 299° |
| 2026-04-20 22:24 | 34.00753 | -119.17973 | 14307 ft | 390 kts | 309° |
| 2026-04-20 22:24 | 34.02747 | -119.20220 | 14758 ft | 396 kts | 318° |
| 2026-04-20 22:24 | 34.04960 | -119.22226 | 15179 ft | 400 kts | 321° |
| 2026-04-20 22:25 | 34.07253 | -119.24152 | 15627 ft | 403 kts | 322° |
| 2026-04-20 22:25 | 34.09567 | -119.26073 | 16038 ft | 406 kts | 322° |
| 2026-04-20 22:25 | 34.11896 | -119.28025 | 16472 ft | 408 kts | 321° |
| 2026-04-20 22:25 | 34.14223 | -119.30002 | 16912 ft | 411 kts | 321° |
| 2026-04-20 22:26 | 34.16559 | -119.32009 | 17341 ft | 413 kts | 321° |
| 2026-04-20 22:26 | 34.18901 | -119.34034 | 17773 ft | 416 kts | 320° |
| 2026-04-20 22:26 | 34.21118 | -119.35959 | 18166 ft | 418 kts | 320° |
| 2026-04-20 22:27 | 34.25867 | -119.40096 | 18927 ft | 423 kts | 320° |
| 2026-04-20 22:27 | 34.28258 | -119.42181 | 19309 ft | 425 kts | 320° |
| 2026-04-20 22:27 | 34.30659 | -119.44276 | 19683 ft | 426 kts | 320° |
| 2026-04-20 22:27 | 34.33074 | -119.46384 | 20055 ft | 428 kts | 320° |
| 2026-04-20 22:28 | 34.35493 | -119.48498 | 20419 ft | 430 kts | 320° |
| 2026-04-20 22:28 | 34.37894 | -119.50597 | 20783 ft | 432 kts | 320° |
| 2026-04-20 22:28 | 34.40336 | -119.52734 | 21157 ft | 434 kts | 320° |
| 2026-04-20 22:28 | 34.42700 | -119.54998 | 21492 ft | 432 kts | 313° |
| 2026-04-20 22:29 | 34.44809 | -119.57587 | 21860 ft | 432 kts | 308° |
| 2026-04-20 22:29 | 34.46774 | -119.60336 | 22237 ft | 432 kts | 306° |
| 2026-04-20 22:29 | 34.48695 | -119.63148 | 22618 ft | 434 kts | 306° |
| 2026-04-20 22:29 | 34.50620 | -119.65984 | 22987 ft | 436 kts | 306° |
| 2026-04-20 22:30 | 34.52562 | -119.68826 | 23340 ft | 439 kts | 306° |
| 2026-04-20 22:30 | 34.54525 | -119.71670 | 23690 ft | 441 kts | 306° |
| 2026-04-20 22:30 | 34.56504 | -119.74517 | 23997 ft | 442 kts | 306° |
| 2026-04-20 22:30 | 34.58492 | -119.77366 | 24293 ft | 444 kts | 306° |
| 2026-04-20 22:31 | 34.60495 | -119.80231 | 24600 ft | 445 kts | 307° |
| 2026-04-20 22:31 | 34.62499 | -119.83098 | 24894 ft | 446 kts | 307° |
| 2026-04-20 22:31 | 34.64510 | -119.85977 | 25183 ft | 447 kts | 307° |
| 2026-04-20 22:31 | 34.66526 | -119.88868 | 25463 ft | 449 kts | 307° |
| 2026-04-20 22:32 | 34.67860 | -119.90780 | 25658 ft | 450 kts | 307° |
| 2026-04-20 22:32 | 34.69884 | -119.93686 | 25952 ft | 451 kts | 307° |
| 2026-04-20 22:32 | 34.71911 | -119.96599 | 26246 ft | 452 kts | 307° |
| 2026-04-20 22:32 | 34.73943 | -119.99521 | 26518 ft | 453 kts | 307° |
| 2026-04-20 22:33 | 34.75987 | -120.02464 | 26784 ft | 455 kts | 307° |
| 2026-04-20 22:33 | 34.78027 | -120.05403 | 27057 ft | 456 kts | 307° |
| 2026-04-20 22:33 | 34.80073 | -120.08353 | 27384 ft | 457 kts | 307° |
| 2026-04-20 22:33 | 34.82127 | -120.11317 | 27630 ft | 458 kts | 307° |
| 2026-04-20 22:34 | 34.83965 | -120.13971 | 27888 ft | 459 kts | 307° |
| 2026-04-20 22:34 | 34.85722 | -120.16511 | 28072 ft | 461 kts | 307° |
| 2026-04-20 22:34 | 34.87814 | -120.19538 | 28332 ft | 462 kts | 307° |
| 2026-04-20 22:34 | 34.89861 | -120.22501 | 28562 ft | 463 kts | 307° |
| 2026-04-20 22:35 | 34.91936 | -120.25508 | 28793 ft | 465 kts | 307° |
| 2026-04-20 22:35 | 34.94017 | -120.28526 | 29037 ft | 466 kts | 307° |
| 2026-04-20 22:35 | 34.96101 | -120.31554 | 29260 ft | 467 kts | 307° |
| 2026-04-20 22:35 | 34.98188 | -120.34601 | 29486 ft | 468 kts | 307° |
| 2026-04-20 22:36 | 35.00273 | -120.37655 | 29738 ft | 469 kts | 307° |
| 2026-04-20 22:36 | 35.02370 | -120.40723 | 29973 ft | 471 kts | 307° |
| 2026-04-20 22:36 | 35.06608 | -120.46915 | 30033 ft | 477 kts | 307° |